CheckWX is a tool to help pilots better visualize weather data.  It is not intended as a substitute for an official pre-flight weather briefing.

23:56:12 UTC

KGAG METAR
Gage Airport
Gage, Oklahoma, USA
Current

1 hour ago

KGAG 162253Z AUTO 18014KT 10SM CLR 17/01 A2991 RMK AO2 PK WND 19026/2156 SLP123 T01670011 $
Observed
Nov-16 @ 22:53 UTC
Wind
  • 180° at 14 KTS
Visibility
10 SM
Flight Rules
VFR
Cloud Levels
  • Clear skies
Temperature
17°C / 63°F
Dewpoint
C / 34°F
Humidity
34%
Altimeter
29.91" Hg
Pressure
1012.92 hPa
Previous

2 hours ago

KGAG 162153Z AUTO 19020G28KT 10SM CLR 18/01 A2991 RMK AO2 PK WND 19031/2101 SLP120 T01780011 $
Observed
Nov-16 @ 21:53 UTC
Wind
  • 190° at 20 KTS
  • Gusting to 28 KTS
Visibility
10 SM
Flight Rules
VFR
Cloud Levels
  • Clear skies
Temperature
18°C / 64°F
Dewpoint
C / 34°F
Humidity
32%
Altimeter
29.91" Hg
Pressure
1012.92 hPa
Previous

3 hours ago

KGAG 162053Z AUTO 18022G31KT 10SM CLR 19/00 A2989 RMK AO2 PK WND 17032/2020 SLP114 T01890000 56036 $
Observed
Nov-16 @ 20:53 UTC
Wind
  • 180° at 22 KTS
  • Gusting to 31 KTS
Visibility
10 SM
Flight Rules
VFR
Cloud Levels
  • Clear skies
Temperature
19°C / 66°F
Dewpoint
C / 32°F
Humidity
28%
Altimeter
29.89" Hg
Pressure
1012.22 hPa